createdAt,value
2022-11-22T00:02:42.948Z,99814.25
2022-11-22T00:05:30.511Z,99813.16
2022-11-22T00:08:18.301Z,99812.91
2022-11-22T00:11:05.959Z,99808.34
2022-11-22T00:13:53.591Z,99795.63
2022-11-22T00:16:41.246Z,99797.09
2022-11-22T00:19:29.175Z,99789.34
2022-11-22T00:22:16.971Z,99789.25
2022-11-22T00:25:05.736Z,99786.53
2022-11-22T00:27:53.891Z,99791.53
2022-11-22T00:30:41.537Z,99789.81
2022-11-22T00:33:29.154Z,99778.81
2022-11-22T00:36:17.325Z,99771.25
2022-11-22T00:39:05.094Z,99768.63
2022-11-22T00:41:52.714Z,99770.28
2022-11-22T00:44:40.339Z,99776.16
2022-11-22T00:47:27.950Z,99766.72
2022-11-22T00:50:15.879Z,99762.53
2022-11-22T00:53:03.542Z,99765.53
2022-11-22T00:55:51.204Z,99750.13
2022-11-22T00:58:38.780Z,99755.97
2022-11-22T01:01:26.441Z,99746.06
2022-11-22T01:04:14.231Z,99738.69
2022-11-22T01:07:03.115Z,99737.50
2022-11-22T01:09:50.735Z,99737.41
2022-11-22T01:12:38.318Z,99733.03
2022-11-22T01:15:25.967Z,99732.03
2022-11-22T01:18:13.576Z,99724.28
2022-11-22T01:21:01.625Z,99719.19
2022-11-22T01:23:49.298Z,99718.09
2022-11-22T01:26:37.113Z,99710.09
2022-11-22T01:29:24.839Z,99715.66
2022-11-22T01:32:12.531Z,99714.13
2022-11-22T01:35:00.188Z,99714.94
2022-11-22T01:37:47.875Z,99704.03
2022-11-22T01:40:35.900Z,99696.09
2022-11-22T01:43:28.473Z,99700.84
2022-11-22T01:46:39.680Z,99698.81
2022-11-22T01:49:48.163Z,99691.91
2022-11-22T01:52:35.827Z,99686.06
2022-11-22T01:55:23.996Z,99674.25
2022-11-22T01:58:14.713Z,99672.63
2022-11-22T02:01:02.837Z,99664.53
2022-11-22T02:03:53.028Z,99653.72
2022-11-22T02:06:43.671Z,99652.06
2022-11-22T02:09:33.396Z,99649.00
2022-11-22T02:12:26.595Z,99638.19
2022-11-22T02:15:14.589Z,99634.44
2022-11-22T02:18:02.212Z,99640.47
2022-11-22T02:20:50.117Z,99635.38
2022-11-22T02:23:43.154Z,99632.72
2022-11-22T02:26:32.172Z,99624.88
2022-11-22T02:29:20.631Z,99618.81
2022-11-22T02:32:08.237Z,99605.06
2022-11-22T02:34:55.913Z,99611.69
2022-11-22T02:37:43.637Z,99600.78
2022-11-22T02:40:43.005Z,99601.50
2022-11-22T02:43:35.035Z,99604.03
2022-11-22T02:46:23.716Z,99592.22
2022-11-22T02:49:11.289Z,99601.50
2022-11-22T02:51:59.114Z,99598.22
2022-11-22T02:54:46.923Z,99586.22
2022-11-22T02:57:34.517Z,99579.66
2022-11-22T03:00:22.794Z,99571.97
2022-11-22T03:03:10.588Z,99571.75
2022-11-22T03:06:16.764Z,99570.94
2022-11-22T03:09:04.375Z,99569.31
2022-11-22T03:11:53.086Z,99563.13
2022-11-22T03:14:40.743Z,99556.31
2022-11-22T03:17:28.375Z,99551.22
2022-11-22T03:20:16.069Z,99552.63
2022-11-22T03:23:03.730Z,99546.53
2022-11-22T03:25:51.365Z,99535.25
2022-11-22T03:28:42.776Z,99537.56
2022-11-22T03:31:30.531Z,99535.97
2022-11-22T03:34:18.287Z,99529.94
2022-11-22T03:37:05.921Z,99537.19
2022-11-22T03:39:53.860Z,99527.22
2022-11-22T03:42:41.453Z,99526.50
2022-11-22T03:45:30.123Z,99527.38
2022-11-22T03:48:18.277Z,99529.03
2022-11-22T03:51:07.101Z,99523.94
2022-11-22T03:53:54.683Z,99510.28
2022-11-22T03:56:42.598Z,99520.34
2022-11-22T03:59:30.411Z,99510.88
2022-11-22T04:02:18.198Z,99506.00
2022-11-22T04:05:06.260Z,99502.53
2022-11-22T04:07:56.225Z,99502.25
2022-11-22T04:10:43.934Z,99496.25
2022-11-22T04:13:50.110Z,99483.41
2022-11-22T04:16:37.744Z,99477.59
2022-11-22T04:19:25.443Z,99461.69
2022-11-22T04:22:13.071Z,99464.63
2022-11-22T04:25:15.752Z,99471.16
2022-11-22T04:28:04.661Z,99464.41
2022-11-22T04:31:15.482Z,99465.84
2022-11-22T04:34:03.237Z,99463.31
2022-11-22T04:36:51.597Z,99443.91
2022-11-22T04:39:40.413Z,99450.38
2022-11-22T04:42:47.140Z,99458.13
2022-11-22T06:30:19.126Z,99314.28
2022-11-22T06:33:35.784Z,99304.28
2022-11-22T06:40:27.702Z,99309.09
2022-11-22T06:43:52.261Z,99298.69
2022-11-22T06:47:27.680Z,99289.06
2022-11-22T06:50:34.902Z,99289.06
2022-11-22T06:53:58.102Z,99287.97
2022-11-22T07:23:23.673Z,99276.78
2022-11-22T07:26:59.586Z,99270.66
2022-11-22T07:33:33.730Z,99252.88
2022-11-22T07:40:01.756Z,99267.19
2022-11-22T07:42:58.777Z,99258.47
2022-11-22T07:45:52.303Z,99259.09
2022-11-22T07:48:43.712Z,99254.53
2022-11-22T07:51:33.939Z,99255.59
2022-11-22T07:54:25.206Z,99243.38
2022-11-22T07:57:14.316Z,99246.50
2022-11-22T08:00:03.378Z,99252.56
2022-11-22T08:02:55.021Z,99254.06
2022-11-22T08:05:45.450Z,99259.78
2022-11-22T08:08:36.342Z,99242.34
2022-11-22T08:11:26.120Z,99257.91
2022-11-22T08:14:15.291Z,99252.81
2022-11-22T08:17:10.013Z,99252.13
2022-11-22T08:20:02.165Z,99243.03
2022-11-22T08:22:51.622Z,99244.53
2022-11-22T08:25:40.108Z,99242.34
2022-11-22T08:28:28.449Z,99243.38
2022-11-22T08:31:19.928Z,99244.44
2022-11-22T08:34:08.042Z,99248.38
2022-11-22T08:36:56.589Z,99243.94
2022-11-22T08:39:45.153Z,99234.91
2022-11-22T08:42:33.509Z,99222.91
2022-11-22T08:45:21.525Z,99222.44
2022-11-22T08:48:09.835Z,99221.97
2022-11-22T08:51:00.883Z,99226.63
2022-11-22T08:53:49.728Z,99220.47
2022-11-22T08:56:37.713Z,99205.78
2022-11-22T08:59:25.551Z,99219.06
2022-11-22T09:02:13.281Z,99216.84
2022-11-22T09:05:00.895Z,99213.25
2022-11-22T09:10:59.755Z,99201.00
2022-11-22T09:13:48.067Z,99202.25
2022-11-22T09:16:35.733Z,99195.97
2022-11-22T09:19:23.435Z,99205.97
2022-11-22T09:22:11.133Z,99197.47
2022-11-22T09:24:58.809Z,99200.94
2022-11-22T09:27:46.514Z,99204.44
2022-11-22T09:30:34.170Z,99200.38
2022-11-22T09:33:21.745Z,99206.06
2022-11-22T09:36:23.576Z,99205.38
2022-11-22T09:39:11.274Z,99200.16
2022-11-22T09:42:22.631Z,99193.66
2022-11-22T09:45:42.274Z,99189.59
2022-11-22T09:48:45.409Z,99191.31
2022-11-22T09:51:46.445Z,99198.03
2022-11-22T09:54:46.601Z,99195.91
2022-11-22T09:57:40.682Z,99191.34
2022-11-22T10:00:30.269Z,99185.44
2022-11-22T10:03:42.083Z,99191.34
2022-11-22T10:06:34.607Z,99190.69
2022-11-22T10:10:11.631Z,99189.19
2022-11-22T10:13:11.694Z,99180.00
2022-11-22T10:16:25.637Z,99184.28
2022-11-22T10:19:41.419Z,99199.09
2022-11-22T10:22:30.413Z,99182.25
2022-11-22T10:25:27.774Z,99173.50
2022-11-22T10:28:19.326Z,99166.28
2022-11-22T10:31:17.724Z,99170.09
2022-11-22T10:34:08.064Z,99178.19
2022-11-22T10:37:16.153Z,99176.06
2022-11-22T10:40:12.800Z,99170.72
2022-11-22T10:43:28.307Z,99157.44
2022-11-22T10:46:56.889Z,99153.25
2022-11-22T10:50:09.028Z,99156.97
2022-11-22T10:53:27.821Z,99154.56
2022-11-22T10:56:24.707Z,99149.56
2022-11-22T10:59:36.995Z,99143.25
2022-11-22T11:02:36.958Z,99144.63
2022-11-22T11:05:33.442Z,99132.53
2022-11-22T11:08:41.999Z,99134.13
2022-11-22T11:11:38.757Z,99139.00
2022-11-22T11:14:46.224Z,99125.84
2022-11-22T11:17:37.199Z,99124.31
2022-11-22T11:20:34.668Z,99118.00
2022-11-22T11:23:22.425Z,99116.97
2022-11-22T11:26:16.105Z,99117.50
2022-11-22T11:29:36.121Z,99128.03
2022-11-22T11:32:25.459Z,99127.00
2022-11-22T11:35:14.048Z,99121.47
2022-11-22T11:38:01.631Z,99126.72
2022-11-22T11:40:49.398Z,99114.72
2022-11-22T11:43:43.195Z,99111.09
2022-11-22T11:46:36.958Z,99109.09
2022-11-22T11:49:30.196Z,99108.97
2022-11-22T11:52:23.377Z,99111.28
2022-11-22T11:55:17.084Z,99119.78
2022-11-22T11:58:19.513Z,99104.44
2022-11-22T12:01:12.440Z,99098.03
2022-11-22T12:04:03.877Z,99108.28
2022-11-22T12:07:02.975Z,99112.06
2022-11-22T12:09:53.585Z,99111.78
2022-11-22T12:12:48.607Z,99116.66
2022-11-22T12:16:01.569Z,99106.28
2022-11-22T12:18:58.965Z,99110.03
2022-11-22T12:21:56.954Z,99102.59
2022-11-22T12:25:24.759Z,99097.47
2022-11-22T12:28:21.723Z,99099.91
2022-11-22T12:31:28.410Z,99094.78
2022-11-22T12:34:38.087Z,99092.91
2022-11-22T12:37:40.363Z,99096.16
2022-11-22T12:40:37.665Z,99096.44
2022-11-22T12:43:28.255Z,99092.00
2022-11-22T12:46:26.477Z,99083.25
2022-11-22T12:49:28.987Z,99083.25
2022-11-22T12:52:33.002Z,99086.59
2022-11-22T12:55:25.197Z,99093.59
2022-11-22T12:58:12.718Z,99094.69
2022-11-22T13:01:15.810Z,99087.00
2022-11-22T13:04:09.837Z,99078.78
2022-11-22T13:07:22.422Z,99082.44
2022-11-22T13:10:26.515Z,99088.94
2022-11-22T13:13:23.329Z,99081.25
2022-11-22T13:16:12.427Z,99077.06
2022-11-22T13:19:06.300Z,99092.88
2022-11-22T13:22:07.968Z,99090.16
2022-11-22T13:25:17.361Z,99089.91
2022-11-22T13:28:29.289Z,99091.91
2022-11-22T13:31:25.132Z,99075.03
2022-11-22T13:34:26.537Z,99080.84
2022-11-22T13:37:16.888Z,99076.28
2022-11-22T13:40:16.612Z,99084.41
2022-11-22T13:43:17.985Z,99087.34
2022-11-22T13:46:47.846Z,99089.22
2022-11-22T13:49:47.904Z,99082.84
2022-11-22T13:52:53.550Z,99078.28
2022-11-22T13:55:42.694Z,99076.91
2022-11-22T13:59:03.505Z,99071.78
2022-11-22T14:01:51.964Z,99080.28
2022-11-22T14:04:41.898Z,99077.91
2022-11-22T14:07:34.328Z,99080.22
2022-11-22T14:10:54.120Z,99086.97
2022-11-22T14:14:06.092Z,99079.41
2022-11-22T14:17:17.739Z,99076.19
2022-11-22T14:20:32.448Z,99081.16
2022-11-22T14:23:46.476Z,99072.44
2022-11-22T14:26:41.724Z,99061.91
2022-11-22T14:29:57.376Z,99081.34
2022-11-22T14:33:01.761Z,99071.19
2022-11-22T14:36:09.609Z,99063.16
2022-11-22T14:38:57.536Z,99068.63
2022-11-22T14:41:45.208Z,99063.41
2022-11-22T14:44:35.480Z,99058.97
2022-11-22T14:47:23.300Z,99057.19
2022-11-22T14:50:18.724Z,99044.94
2022-11-22T14:53:21.322Z,99050.06
2022-11-22T14:56:22.824Z,99050.19
2022-11-22T14:59:47.544Z,99053.16
2022-11-22T15:02:58.413Z,99058.53
2022-11-22T15:09:20.086Z,99050.84
2022-11-22T15:09:48.823Z,99056.78
2022-11-22T15:13:31.524Z,99059.06
